Fryeburg, Maine
Current Conditions -  °F | °C
As of 7:54 PM on Thursday 27 Nov 2014 (Local Time) from KIZG Reporting Station
Overcast Overcast  
Wind Chill: 28°   Ceiling: 3600
Heat Index: 28°   Visibility: 10mi
Dew Point: 21°   Wind: 0mph
Humidity: 75%   Direction: NA
Pressure: 30.01"   Gusts: NA
Location:  44.02°N, 70.98°W
Report Text: KIZG 280054Z AUTO 00000KT 10SM OVC036 M02/M06 A3001 RMK AO2 SLP170 T10221061
Loading
Personal Weather Stations






























Interactive Weather Map New forecast layout! Learn more

10-Day Weather Forecast

Advertisements
Track Severe Weather on mobile